Earleville, Maryland
Current Conditions -  °F | °C
As of 7:55 PM on Thursday 18 Dec 2014 (Local Time) from KAPG Reporting Station
Overcast Overcast  
Wind Chill: 32°   Ceiling: 4000
Heat Index: 37°   Visibility: 7mi
Dew Point: 27°   Wind: 7mph
Humidity: 65%   Direction: 280°W
Pressure: 30.11"   Gusts: NA
Location:  39.42°N, 75.92°W
Report Text: KAPG 190055Z 28006KT 7SM OVC040 03/M03 A3011 RMK LAST
Loading
Personal Weather Stations






























Interactive Weather Map New forecast layout! Learn more

10-Day Weather Forecast

Advertisements
Track Severe Weather on mobile